Terminal Aerodrome Forecast
Issued by NWS

Home | Current Version | Previous Version | Text Only | Print | Product List | Glossary On
Versions: 1 2 3 4 5 6 7 8 9 10 11 12 13 14 15 16 17 18 19 20 21 22 23 24 25
440
FTUS43 KDLH 212330
TAFHYR
TAF
KHYR 212330Z 2200/2224 00000KT P6SM VCTS SCT070CB BKN110
      TEMPO 2200/2202 1SM -TSRA BR BKN040CB OVC080
     FM220200 00000KT P6SM VCSH BKN025 OVC050
     FM220500 00000KT 5SM BR VCSH BKN015
     FM220900 VRB03KT P6SM OVC015
     FM221200 30005KT P6SM SCT025 SCT250
     FM221700 30011G22KT P6SM FEW090=

USA.gov is the U.S. government's official web portal to all federal, state and local government web resources and services.